TSC230 CYYZ-EIDW
Flight info
| Callsign | TSC230 |
|---|---|
| Flight time | N/A |
| Altitude | 37000 |
| Route | VERDO7 IPTOS Q921 AGLUK DCT BAREE N581A TUDEP/M080F390 DCT 52N050W 53N040W 54N030W 55N020W DCT RESNO DCT NETKI/N0448F390 DCT REVNU DCT OLAPO OLAPO4L |
| Aircraft | A333/H-SDE3GHIJ2J3J5M1RVWXY/LB2D1 |
Departure
| Time | 2026-05-06 12:32 |
|---|---|
| Airport | Toronto Pearson International Airport (CYYZ) |
Arrival
| Time | N/A |
|---|---|
| Airport | Dublin Airport (EIDW) |
| Time | Latitude | Longitude | Altitude | Speed | Heading |
|---|---|---|---|---|---|
| 2026-05-06 11:54 | 43.68584 | -79.62380 | 576 ft | 0 kts | 144° |
| 2026-05-06 12:18 | 43.68595 | -79.62392 | 575 ft | 2 kts | 140° |
| 2026-05-06 12:18 | 43.68607 | -79.62404 | 575 ft | 2 kts | 145° |
| 2026-05-06 12:18 | 43.68620 | -79.62415 | 574 ft | 2 kts | 164° |
| 2026-05-06 12:18 | 43.68635 | -79.62416 | 574 ft | 2 kts | 198° |
| 2026-05-06 12:19 | 43.68642 | -79.62412 | 574 ft | 1 kts | 211° |
| 2026-05-06 12:19 | 43.68646 | -79.62409 | 574 ft | 0 kts | 210° |
| 2026-05-06 12:19 | 43.68646 | -79.62410 | 574 ft | 0 kts | 210° |
| 2026-05-06 12:22 | 43.68644 | -79.62411 | 574 ft | 0 kts | 211° |
| 2026-05-06 12:22 | 43.68630 | -79.62427 | 574 ft | 4 kts | 223° |
| 2026-05-06 12:23 | 43.68601 | -79.62470 | 574 ft | 7 kts | 228° |
| 2026-05-06 12:23 | 43.68559 | -79.62540 | 574 ft | 10 kts | 232° |
| 2026-05-06 12:23 | 43.68514 | -79.62623 | 574 ft | 11 kts | 232° |
| 2026-05-06 12:23 | 43.68459 | -79.62711 | 573 ft | 12 kts | 226° |
| 2026-05-06 12:24 | 43.68382 | -79.62748 | 573 ft | 12 kts | 161° |
| 2026-05-06 12:24 | 43.68309 | -79.62676 | 575 ft | 13 kts | 136° |
| 2026-05-06 12:24 | 43.68237 | -79.62582 | 577 ft | 16 kts | 135° |
| 2026-05-06 12:24 | 43.68147 | -79.62458 | 578 ft | 20 kts | 135° |
| 2026-05-06 12:25 | 43.68028 | -79.62311 | 579 ft | 24 kts | 137° |
| 2026-05-06 12:25 | 43.67899 | -79.62169 | 580 ft | 23 kts | 158° |
| 2026-05-06 12:25 | 43.67783 | -79.62044 | 579 ft | 19 kts | 130° |
| 2026-05-06 12:25 | 43.67688 | -79.61938 | 577 ft | 17 kts | 135° |
| 2026-05-06 12:26 | 43.67600 | -79.61815 | 576 ft | 18 kts | 134° |
| 2026-05-06 12:26 | 43.67509 | -79.61691 | 574 ft | 18 kts | 137° |
| 2026-05-06 12:26 | 43.67408 | -79.61571 | 571 ft | 19 kts | 136° |
| 2026-05-06 12:26 | 43.67305 | -79.61433 | 569 ft | 20 kts | 136° |
| 2026-05-06 12:27 | 43.67229 | -79.61340 | 567 ft | 9 kts | 153° |
| 2026-05-06 12:27 | 43.67170 | -79.61372 | 566 ft | 11 kts | 231° |
| 2026-05-06 12:27 | 43.67112 | -79.61455 | 565 ft | 12 kts | 219° |
| 2026-05-06 12:27 | 43.67040 | -79.61536 | 564 ft | 13 kts | 219° |
| 2026-05-06 12:28 | 43.66961 | -79.61632 | 563 ft | 15 kts | 223° |
| 2026-05-06 12:28 | 43.66879 | -79.61741 | 562 ft | 16 kts | 224° |
| 2026-05-06 12:28 | 43.66791 | -79.61857 | 560 ft | 18 kts | 223° |
| 2026-05-06 12:28 | 43.66695 | -79.61977 | 557 ft | 19 kts | 221° |
| 2026-05-06 12:29 | 43.66591 | -79.62103 | 555 ft | 20 kts | 221° |
| 2026-05-06 12:29 | 43.66484 | -79.62242 | 551 ft | 21 kts | 223° |
| 2026-05-06 12:29 | 43.66375 | -79.62382 | 545 ft | 17 kts | 222° |
| 2026-05-06 12:29 | 43.66291 | -79.62483 | 542 ft | 15 kts | 210° |
| 2026-05-06 12:30 | 43.66214 | -79.62452 | 540 ft | 8 kts | 123° |
| 2026-05-06 12:30 | 43.66180 | -79.62398 | 540 ft | 8 kts | 135° |
| 2026-05-06 12:30 | 43.66140 | -79.62339 | 540 ft | 6 kts | 119° |
| 2026-05-06 12:30 | 43.66144 | -79.62291 | 541 ft | 5 kts | 53° |
| 2026-05-06 12:31 | 43.66166 | -79.62257 | 542 ft | 4 kts | 46° |
| 2026-05-06 12:31 | 43.66243 | -79.62147 | 546 ft | 39 kts | 46° |
| 2026-05-06 12:31 | 43.66569 | -79.61665 | 556 ft | 96 kts | 47° |
| 2026-05-06 12:31 | 43.67159 | -79.60816 | 561 ft | 145 kts | 46° |
| 2026-05-06 12:32 | 43.67946 | -79.59693 | 761 ft | 169 kts | 48° |
| 2026-05-06 12:32 | 43.68787 | -79.58494 | 1170 ft | 179 kts | 48° |
| 2026-05-06 12:32 | 43.69648 | -79.57266 | 1819 ft | 177 kts | 48° |
| 2026-05-06 12:32 | 43.70499 | -79.56054 | 2395 ft | 179 kts | 47° |
| 2026-05-06 12:33 | 43.71413 | -79.54751 | 2727 ft | 194 kts | 46° |
| 2026-05-06 12:33 | 43.72219 | -79.53165 | 3028 ft | 211 kts | 75° |
| 2026-05-06 12:33 | 43.72124 | -79.51115 | 3435 ft | 226 kts | 107° |
| 2026-05-06 12:33 | 43.71505 | -79.49049 | 3813 ft | 241 kts | 114° |
| 2026-05-06 12:34 | 43.70796 | -79.46832 | 4160 ft | 258 kts | 114° |
| 2026-05-06 12:34 | 43.70090 | -79.44492 | 4650 ft | 269 kts | 112° |
| 2026-05-06 12:34 | 43.69418 | -79.42067 | 5080 ft | 274 kts | 111° |
| 2026-05-06 12:34 | 43.68760 | -79.39592 | 5772 ft | 277 kts | 110° |
| 2026-05-06 12:35 | 43.68106 | -79.37077 | 6438 ft | 280 kts | 110° |
| 2026-05-06 12:35 | 43.67458 | -79.34544 | 7029 ft | 285 kts | 111° |
| 2026-05-06 12:35 | 43.66792 | -79.31923 | 7609 ft | 290 kts | 111° |
| 2026-05-06 12:35 | 43.66116 | -79.29266 | 8200 ft | 295 kts | 112° |
| 2026-05-06 12:36 | 43.65435 | -79.26595 | 8764 ft | 300 kts | 112° |
| 2026-05-06 12:36 | 43.64850 | -79.23801 | 9306 ft | 308 kts | 97° |
| 2026-05-06 12:36 | 43.65071 | -79.20873 | 9853 ft | 315 kts | 70° |
| 2026-05-06 12:36 | 43.65949 | -79.18082 | 10316 ft | 323 kts | 64° |
| 2026-05-06 12:37 | 43.66969 | -79.15209 | 10591 ft | 338 kts | 63° |
| 2026-05-06 12:37 | 43.68012 | -79.12228 | 10865 ft | 354 kts | 64° |
| 2026-05-06 12:37 | 43.69075 | -79.09077 | 11185 ft | 367 kts | 65° |
| 2026-05-06 12:37 | 43.70146 | -79.05835 | 11724 ft | 373 kts | 66° |
| 2026-05-06 12:38 | 43.71141 | -79.02494 | 12331 ft | 376 kts | 71° |
| 2026-05-06 12:38 | 43.71983 | -78.99073 | 12926 ft | 379 kts | 73° |
| 2026-05-06 12:38 | 43.72793 | -78.95578 | 13495 ft | 383 kts | 74° |
| 2026-05-06 12:38 | 43.73611 | -78.92015 | 14116 ft | 386 kts | 74° |
| 2026-05-06 12:39 | 43.74417 | -78.88519 | 14973 ft | 379 kts | 73° |
| 2026-05-06 12:39 | 43.75212 | -78.85091 | 15660 ft | 379 kts | 73° |
| 2026-05-06 12:39 | 43.76026 | -78.81586 | 16226 ft | 383 kts | 73° |
| 2026-05-06 12:39 | 43.76872 | -78.78050 | 16780 ft | 386 kts | 71° |
| 2026-05-06 12:40 | 43.77880 | -78.74580 | 17324 ft | 390 kts | 65° |
| 2026-05-06 12:40 | 43.79042 | -78.71150 | 17816 ft | 394 kts | 64° |
| 2026-05-06 12:40 | 43.80237 | -78.67735 | 18325 ft | 397 kts | 63° |
| 2026-05-06 12:40 | 43.81436 | -78.64311 | 18864 ft | 400 kts | 64° |
| 2026-05-06 12:41 | 43.82660 | -78.60815 | 19338 ft | 404 kts | 64° |
| 2026-05-06 12:41 | 43.83879 | -78.57302 | 19799 ft | 409 kts | 63° |
| 2026-05-06 12:41 | 43.85119 | -78.53719 | 20276 ft | 412 kts | 64° |
| 2026-05-06 12:41 | 43.86348 | -78.50153 | 20735 ft | 415 kts | 64° |
| 2026-05-06 12:42 | 43.87592 | -78.46537 | 21260 ft | 417 kts | 64° |
| 2026-05-06 12:42 | 43.88834 | -78.42924 | 21817 ft | 416 kts | 64° |
| 2026-05-06 12:42 | 43.90070 | -78.39326 | 22265 ft | 419 kts | 64° |
| 2026-05-06 12:42 | 43.91327 | -78.35646 | 22659 ft | 423 kts | 64° |
| 2026-05-06 12:43 | 43.92581 | -78.31981 | 23050 ft | 427 kts | 64° |
| 2026-05-06 12:43 | 43.93863 | -78.28233 | 23440 ft | 430 kts | 64° |
| 2026-05-06 12:43 | 43.95141 | -78.24480 | 23799 ft | 435 kts | 65° |
| 2026-05-06 12:43 | 43.96431 | -78.20704 | 24170 ft | 438 kts | 65° |
| 2026-05-06 12:44 | 43.97735 | -78.16872 | 24574 ft | 440 kts | 65° |
| 2026-05-06 12:44 | 43.99054 | -78.12990 | 24992 ft | 443 kts | 65° |
| 2026-05-06 12:44 | 44.00359 | -78.09141 | 25390 ft | 445 kts | 65° |
| 2026-05-06 12:44 | 44.01678 | -78.05249 | 25752 ft | 449 kts | 65° |
| 2026-05-06 12:45 | 44.03009 | -78.01311 | 26133 ft | 452 kts | 65° |
| 2026-05-06 12:45 | 44.04348 | -77.97349 | 26497 ft | 455 kts | 65° |
| 2026-05-06 12:45 | 44.07061 | -77.89285 | 27242 ft | 460 kts | 65° |
| 2026-05-06 12:46 | 44.08407 | -77.85281 | 27575 ft | 463 kts | 65° |
| 2026-05-06 12:46 | 44.09782 | -77.81187 | 27926 ft | 465 kts | 65° |
| 2026-05-06 12:46 | 44.11174 | -77.77036 | 28249 ft | 468 kts | 65° |
| 2026-05-06 12:46 | 44.12542 | -77.72945 | 28557 ft | 471 kts | 65° |
| 2026-05-06 12:47 | 44.13925 | -77.68802 | 28854 ft | 474 kts | 65° |
| 2026-05-06 12:47 | 44.15322 | -77.64598 | 29178 ft | 477 kts | 66° |
| 2026-05-06 12:47 | 44.16726 | -77.60386 | 29470 ft | 479 kts | 66° |
| 2026-05-06 12:47 | 44.18142 | -77.56152 | 29775 ft | 482 kts | 64° |
| 2026-05-06 12:48 | 44.19695 | -77.52038 | 30039 ft | 485 kts | 60° |
| 2026-05-06 12:48 | 44.21468 | -77.48044 | 30341 ft | 487 kts | 55° |
| 2026-05-06 12:48 | 44.23468 | -77.44199 | 30625 ft | 488 kts | 50° |
| 2026-05-06 12:48 | 44.25565 | -77.40529 | 30911 ft | 490 kts | 49° |
| 2026-05-06 12:49 | 44.27740 | -77.36807 | 31152 ft | 493 kts | 49° |
| 2026-05-06 12:49 | 44.29923 | -77.33057 | 31411 ft | 496 kts | 50° |
| 2026-05-06 12:49 | 44.32077 | -77.29334 | 31658 ft | 498 kts | 50° |
| 2026-05-06 12:49 | 44.34228 | -77.25594 | 31903 ft | 500 kts | 50° |
| 2026-05-06 12:50 | 44.36394 | -77.21811 | 32145 ft | 502 kts | 50° |
| 2026-05-06 12:50 | 44.38597 | -77.17948 | 32383 ft | 504 kts | 51° |
| 2026-05-06 12:50 | 44.40776 | -77.14125 | 32608 ft | 506 kts | 51° |
| 2026-05-06 12:50 | 44.42963 | -77.10272 | 32872 ft | 508 kts | 51° |
| 2026-05-06 12:51 | 44.45142 | -77.06429 | 33098 ft | 510 kts | 51° |
| 2026-05-06 12:51 | 44.47349 | -77.02530 | 33328 ft | 511 kts | 51° |
| 2026-05-06 12:51 | 44.49541 | -76.98660 | 33556 ft | 513 kts | 51° |
| 2026-05-06 12:51 | 44.51757 | -76.94738 | 33772 ft | 515 kts | 51° |
| 2026-05-06 12:52 | 44.54002 | -76.90768 | 34002 ft | 517 kts | 50° |
| 2026-05-06 12:52 | 44.56221 | -76.86836 | 34222 ft | 519 kts | 51° |
| 2026-05-06 12:52 | 44.58459 | -76.82858 | 34411 ft | 521 kts | 51° |
| 2026-05-06 12:52 | 44.60694 | -76.78886 | 34584 ft | 523 kts | 51° |
| 2026-05-06 12:53 | 44.62948 | -76.74869 | 34734 ft | 525 kts | 51° |
| 2026-05-06 12:53 | 44.65178 | -76.70888 | 34898 ft | 526 kts | 50° |
| 2026-05-06 12:53 | 44.67458 | -76.66810 | 35079 ft | 527 kts | 51° |
| 2026-05-06 12:53 | 44.69700 | -76.62798 | 35236 ft | 528 kts | 50° |
| 2026-05-06 12:54 | 44.71967 | -76.58733 | 35405 ft | 529 kts | 50° |
| 2026-05-06 12:54 | 44.74239 | -76.54658 | 35572 ft | 530 kts | 50° |
| 2026-05-06 12:54 | 44.76500 | -76.50602 | 35722 ft | 531 kts | 50° |
| 2026-05-06 12:54 | 44.78781 | -76.46497 | 35845 ft | 532 kts | 50° |
| 2026-05-06 12:55 | 44.81062 | -76.42392 | 35994 ft | 532 kts | 50° |
| 2026-05-06 12:55 | 44.83333 | -76.38291 | 36129 ft | 533 kts | 50° |
| 2026-05-06 12:55 | 44.85595 | -76.34197 | 36286 ft | 533 kts | 51° |
| 2026-05-06 12:55 | 44.87833 | -76.30040 | 36456 ft | 534 kts | 53° |
| 2026-05-06 12:56 | 44.89908 | -76.25697 | 36608 ft | 536 kts | 58° |
| 2026-05-06 12:56 | 44.91778 | -76.21155 | 36762 ft | 537 kts | 62° |
| 2026-05-06 12:56 | 44.93421 | -76.16458 | 36879 ft | 537 kts | 67° |
| 2026-05-06 12:57 | 44.96090 | -76.06599 | 36904 ft | 535 kts | 73° |
| 2026-05-06 12:57 | 44.98436 | -75.96690 | 36901 ft | 535 kts | 73° |
| 2026-05-06 12:58 | 45.00805 | -75.86764 | 36903 ft | 535 kts | 73° |